Latest Weather Observations for Essendon Airport

IDV60901

Issued at 8:31 am EST Tuesday 17 September 2019 (issued every 10 minutes, with the page automatically refreshed every 10 minutes)

About weather observations | Map of Melbourne area stations | Latest observations for Melbourne area | Other Formats
Station Details ID: 086038 Name: ESSENDON AIRPORT Lat: -37.73 Lon: 144.91 Height: 78.4 m
Data from the previous 72 hours. | See also: Recent months at Essendon Airport
Date/Time
EST
Temp
°C
App
Temp
°C
Dew
Point
°C
Rel
Hum
%
Delta-T
°C
Wind Press
QNH
hPa
Press
MSL
hPa
Rain since
9am
mm
Dir  Spd
km/h
Gust
km/h
Spd
kts
Gust
kts
17/08:30am 9.4 3.8 1.3 57 3.3 SE 20 28 11 15 1028.0 1028.1 0.0
17/08:00am 8.5 5.5 1.9 63 2.7 ESE 7 11 4 6 1027.8 1027.9 0.0
17/07:30am 7.1 4.0 1.4 67 2.3 SSE 7 11 4 6 1027.5 1027.6 0.0
17/07:00am 5.6 1.7 1.0 72 1.8 SE 11 13 6 7 1027.2 1027.3 0.0
17/06:30am 4.4 0.4 0.4 75 1.5 SE 11 13 6 7 1027.2 1027.3 0.0
17/06:00am 3.7 0.1 0.8 81 1.1 SE 9 13 5 7 1027.0 1027.1 0.0
17/05:30am 3.7 0.6 1.1 83 1.0 SE 7 7 4 4 1026.7 1026.8 0.0
17/05:00am 4.5 1.0 1.5 81 1.2 SE 9 9 5 5 1026.5 1026.6 0.0
17/04:30am 5.1 1.6 1.4 77 1.5 SE 9 13 5 7 1026.3 1026.4 0.0
17/04:00am 5.5 1.3 1.4 75 1.6 SE 13 15 7 8 1026.1 1026.2 0.0
17/03:30am 6.1 1.9 1.6 73 1.8 SE 13 17 7 9 1026.0 1026.1 0.0
17/03:00am 7.1 2.6 2.0 70 2.1 SSE 15 24 8 13 1026.0 1026.1 0.0
17/02:30am 7.1 3.1 2.6 73 1.9 SSE 13 17 7 9 1025.9 1026.0 0.0
17/02:00am 7.0 2.9 2.1 71 2.0 SSE 13 20 7 11 1025.9 1026.0 0.0
17/01:30am 7.5 2.6 2.2 69 2.2 SSE 17 22 9 12 1026.0 1026.1 0.0
17/01:00am 7.5 2.6 2.2 69 2.2 SSE 17 22 9 12 1026.3 1026.4 0.0
17/12:30am 8.1 2.8 2.1 66 2.5 SSE 19 26 10 14 1026.4 1026.5 0.0
17/12:00am 8.2 2.3 1.4 62 2.8 SSE 22 32 12 17 1026.2 1026.3 0.0
 
Date/Time
EST
Temp
°C
App
Temp
°C
Dew
Point
°C
Rel
Hum
%
Delta-T
°C
Wind Press
QNH
hPa
Press
MSL
hPa
Rain since
9am
mm
Dir  Spd
km/h
Gust
km/h
Spd
kts
Gust
kts
16/11:30pm 7.8 2.1 0.5 60 2.9 SSE 20 32 11 17 1026.2 1026.3 0.0
16/11:00pm 8.1 2.4 0.3 58 3.1 SSE 20 30 11 16 1026.1 1026.2 0.0
16/10:30pm 8.0 2.6 2.3 67 2.4 S 20 33 11 18 1026.1 1026.2 0.0
16/10:00pm 7.9 3.2 3.4 73 1.9 S 17 26 9 14 1026.1 1026.2 0.0
16/09:30pm 8.0 2.8 3.5 73 1.9 S 20 30 11 16 1026.0 1026.1 0.0
16/09:15pm 8.4 1.7 3.8 73 2.0 S 28 39 15 21 1025.9 1026.0 0.0
16/09:00pm 8.2 3.8 2.7 68 2.3 SSE 15 19 8 10 1025.7 1025.8 0.0
16/08:30pm 7.9 3.1 2.4 68 2.3 S 17 20 9 11 1025.6 1025.7 0.0
16/08:00pm 8.3 2.9 2.5 67 2.4 SSE 20 32 11 17 1025.5 1025.6 0.0
16/07:30pm 8.5 1.9 2.3 65 2.6 SSE 26 33 14 18 1025.1 1025.2 0.0
16/07:00pm 9.1 2.9 2.0 61 3.0 S 24 33 13 18 1024.7 1024.8 0.0
16/06:30pm 9.1 2.1 -0.2 52 3.7 S 26 35 14 19 1024.3 1024.4 0.0
16/06:00pm 9.4 1.7 -0.2 51 3.8 S 30 39 16 21 1024.2 1024.3 0.0
16/05:30pm 9.8 2.4 1.9 58 3.3 S 30 41 16 22 1023.7 1023.8 0.0
16/05:00pm 10.2 2.8 1.6 55 3.6 S 30 43 16 23 1023.0 1023.1 0.0
16/04:30pm 10.5 2.2 0.0 48 4.3 S 33 43 18 23 1022.7 1022.8 0.0
16/04:00pm 10.5 2.4 1.3 53 3.8 S 33 44 18 24 1022.5 1022.6 0.0
16/03:30pm 10.9 3.3 3.0 58 3.4 S 32 41 17 22 1022.2 1022.3 0.0
16/03:00pm 10.8 3.1 2.1 55 3.7 S 32 44 17 24 1022.3 1022.4 0.0
16/02:30pm 11.9 4.3 2.6 53 4.1 S 32 44 17 24 1022.0 1022.1 0.0
16/02:00pm 11.7 4.8 4.4 61 3.3 SSE 30 41 16 22 1021.7 1021.8 0.0
16/01:30pm 11.1 3.4 2.2 54 3.8 S 32 46 17 25 1021.5 1021.6 0.0
16/01:12pm 11.2 3.8 1.7 52 4.0 S 30 48 16 26 1021.4 1021.5 0.0
16/01:00pm 11.5 3.4 3.3 57 3.6 S 35 48 19 26 1021.5 1021.6 0.0
16/12:30pm 11.2 3.3 4.2 62 3.1 S 35 48 19 26 1021.1 1021.2 0.0
16/12:00pm 11.9 4.2 3.2 55 3.8 S 33 44 18 24 1021.0 1021.1 0.0
16/11:30am 12.2 4.5 3.2 54 4.0 S 33 46 18 25 1021.0 1021.1 0.0
16/11:00am 11.1 3.4 2.2 54 3.8 S 32 44 17 24 1020.8 1020.8 0.0
16/10:30am 11.7 5.0 3.5 57 3.6 SSW 28 44 15 24 1020.6 1020.6 0.0
16/10:00am 10.9 3.4 3.5 60 3.3 SSW 32 41 17 22 1020.4 1020.4 0.0
16/09:30am 10.5 4.9 5.5 71 2.3 SSW 24 35 13 19 1020.3 1020.3 0.0
16/09:00am 10.6 5.2 6.2 74 2.1 SSW 24 35 13 19 1020.4 1020.4 14.0
16/08:30am 10.1 6.4 8.0 87 1.0 SW 17 22 9 12 1020.1 1020.1 14.0
16/08:00am 9.8 6.1 7.9 88 0.9 SW 17 19 9 10 1019.8 1019.8 14.0
16/07:30am 8.8 5.4 7.6 92 0.6 SW 15 20 8 11 1019.6 1019.6 14.0
16/07:00am 8.6 5.2 7.5 93 0.5 WSW 15 19 8 10 1019.4 1019.4 14.0
16/06:30am 8.9 5.9 7.7 92 0.6 WSW 13 17 7 9 1018.8 1018.8 14.0
16/06:00am 9.0 6.0 7.8 92 0.6 WSW 13 17 7 9 1018.6 1018.6 14.0
16/05:30am 9.2 6.7 8.1 93 0.5 W 11 15 6 8 1018.2 1018.2 14.0
16/05:00am 9.2 7.1 8.3 94 0.4 WSW 9 13 5 7 1018.1 1018.1 14.0
16/04:30am 9.1 7.0 8.2 94 0.4 W 9 13 5 7 1017.7 1017.7 14.0
16/04:00am 9.0 6.1 8.2 95 0.4 W 13 17 7 9 1017.2 1017.2 14.0
16/03:30am 9.0 5.4 8.2 95 0.4 WNW 17 20 9 11 1017.4 1017.4 13.8
16/03:14am 9.1 5.1 8.3 95 0.4 W 19 22 10 12 1017.3 1017.3 13.4
16/03:00am 9.2 5.6 8.4 95 0.4 W 17 20 9 11 1017.1 1017.1 12.0
16/02:30am 9.2 5.6 8.3 94 0.4 W 17 22 9 12 1017.2 1017.2 11.0
16/02:11am 9.3 6.1 8.4 94 0.4 WSW 15 22 8 12 1017.1 1017.1 10.0
16/02:00am 9.3 5.7 8.4 94 0.4 W 17 22 9 12 1017.1 1017.1 10.0
16/01:55am 9.4 5.9 8.6 95 0.4 W 17 22 9 12 1017.2 1017.2 9.8
16/01:48am 9.5 5.6 8.7 95 0.4 W 19 24 10 13 1017.2 1017.2 9.8
16/01:35am 9.7 6.2 8.8 94 0.4 WSW 17 28 9 15 1017.1 1017.1 9.4
16/01:30am 9.6 5.1 8.5 93 0.5 WSW 22 39 12 21 1016.6 1016.6 9.0
16/01:00am 10.0 5.1 8.6 91 0.7 SW 24 33 13 18 1016.6 1016.6 7.6
16/12:30am 11.3 4.8 10.4 94 0.5 SW 35 46 19 25 1016.1 1016.1 7.0
16/12:25am 11.8 5.3 10.5 92 0.7 WSW 35 50 19 27 1016.0 1016.0 6.8
16/12:18am 12.7 9.2 10.9 89 0.9 W 20 50 11 27 1015.3 1015.3 6.8
16/12:00am 13.9 11.6 11.9 88 1.1 WNW 15 22 8 12 1015.0 1015.1 6.8
 
Date/Time
EST
Temp
°C
App
Temp
°C
Dew
Point
°C
Rel
Hum
%
Delta-T
°C
Wind Press
QNH
hPa
Press
MSL
hPa
Rain since
9am
mm
Dir  Spd
km/h
Gust
km/h
Spd
kts
Gust
kts
15/11:30pm 13.8 12.5 12.4 91 0.8 NW 11 13 6 7 1015.0 1015.1 6.2
15/11:00pm 13.7 12.0 12.3 91 0.8 NNW 13 15 7 8 1014.9 1015.0 6.0
15/10:30pm 14.8 12.9 11.8 82 1.6 NW 13 17 7 9 1015.6 1015.6 5.8
15/10:00pm 14.0 12.3 12.4 90 0.9 WNW 13 20 7 11 1016.0 1016.0 5.6
15/09:30pm 13.9 13.2 12.1 89 1.0 N 7 11 4 6 1015.2 1015.2 5.6
15/09:00pm 13.8 11.3 12.4 91 0.8 N 17 20 9 11 1014.9 1015.0 5.6
15/08:30pm 13.7 12.0 12.6 93 0.6 N 13 19 7 10 1015.3 1015.3 5.6
15/08:00pm 13.9 12.8 13.0 94 0.5 N 11 15 6 8 1016.3 1016.3 5.2
15/07:44pm 13.9 13.1 13.0 94 0.5 NNW 9 13 5 7 1016.9 1016.9 5.0
15/07:30pm 13.9 13.1 12.8 93 0.6 SW 9 15 5 8 1017.6 1017.6 4.4
15/07:14pm 14.4 11.6 12.6 89 1.0 WSW 19 35 10 19 1018.0 1018.0 2.2
15/07:00pm 15.4 13.3 11.2 76 2.3 NNW 13 17 7 9 1016.8 1016.8 0.4
15/06:30pm 15.2 13.2 11.4 78 2.0 NNW 13 19 7 10 1016.0 1016.0 0.2
15/06:00pm 15.2 13.2 11.6 79 1.9 N 13 20 7 11 1015.6 1015.6 0.2
15/05:30pm 15.6 12.9 11.8 78 2.1 N 17 24 9 13 1015.4 1015.4 0.0
15/05:00pm 17.1 15.3 10.7 66 3.4 NNW 11 20 6 11 1015.9 1015.9 0.0
15/04:30pm 16.7 14.6 11.0 69 3.1 N 13 20 7 11 1016.0 1016.0 0.0
15/04:00pm 17.0 13.6 10.4 65 3.5 NNW 19 28 10 15 1016.1 1016.1 0.0
15/03:30pm 17.2 13.6 10.6 65 3.5 N 20 30 11 16 1015.3 1015.3 0.0
15/03:00pm 18.6 13.9 9.1 54 5.0 NNW 24 35 13 19 1014.7 1014.8 0.0
15/02:30pm 18.7 14.4 9.5 55 4.9 NNW 22 33 12 18 1015.0 1015.1 0.0
15/02:00pm 19.0 13.0 8.6 51 5.4 NNW 30 41 16 22 1015.3 1015.3 0.0
15/01:30pm 18.7 13.8 10.0 57 4.6 NNW 26 41 14 22 1015.7 1015.7 0.0
15/01:00pm 17.3 12.3 8.2 55 4.7 NW 24 37 13 20 1015.5 1015.5 0.0
15/12:44pm 17.4 10.8 8.5 56 4.6 NNW 33 56 18 30 1015.4 1015.4 0.0
15/12:30pm 16.9 8.5 7.5 54 4.7 N 41 61 22 33 1014.3 1014.4 0.0
15/12:15pm 16.9 9.2 7.0 52 4.9 N 37 57 20 31 1014.8 1014.9 0.0
15/12:00pm 16.1 9.7 7.1 55 4.5 N 30 44 16 24 1015.4 1015.4 0.0
15/11:30am 15.2 8.3 6.5 56 4.2 N 32 50 17 27 1015.8 1015.8 0.0
15/11:00am 14.9 6.3 6.7 58 4.0 N 41 63 22 34 1016.4 1016.4 0.0
15/10:30am 14.3 6.1 6.6 60 3.7 N 39 57 21 31 1016.7 1016.7 0.0
15/10:03am 14.2 5.6 6.6 60 3.7 N 41 61 22 33 1017.2 1017.2 0.0
15/10:00am 14.1 5.9 6.5 60 3.7 N 39 56 21 30 1017.1 1017.1 0.0
15/09:30am 14.0 5.9 6.8 62 3.5 N 39 57 21 31 1017.5 1017.5 0.0
15/09:06am 13.7 5.9 6.8 63 3.3 N 37 56 20 30 1017.6 1017.6 0.0
15/09:00am 13.7 6.4 7.0 64 3.3 N 35 50 19 27 1018.0 1018.0 1.0
15/08:38am 13.3 5.6 7.1 66 3.0 N 37 56 20 30 1018.3 1018.3 1.0
15/08:30am 13.3 5.2 7.1 66 3.0 N 39 56 21 30 1018.2 1018.2 1.0
15/08:00am 12.5 4.1 7.4 71 2.5 N 41 59 22 32 1018.1 1018.1 1.0
15/07:34am 13.2 5.0 6.5 64 3.2 N 39 57 21 31 1018.2 1018.2 0.8
15/07:30am 13.2 5.4 6.5 64 3.2 N 37 54 20 29 1018.2 1018.2 0.8
15/07:10am 13.5 6.7 6.8 64 3.2 N 32 54 17 29 1018.2 1018.2 0.8
15/07:00am 13.1 5.4 7.1 67 2.9 N 37 50 20 27 1017.9 1017.9 0.8
15/06:30am 13.2 6.3 7.4 68 2.8 N 33 54 18 29 1017.4 1017.4 0.8
15/06:28am 13.2 6.6 7.6 69 2.8 N 32 54 17 29 1017.3 1017.3 0.8
15/06:00am 12.7 7.7 8.0 73 2.3 N 24 37 13 20 1017.5 1017.5 0.8
15/05:30am 12.0 6.4 8.8 81 1.6 N 28 41 15 22 1017.5 1017.5 0.8
15/05:00am 12.1 6.9 8.9 81 1.6 N 26 39 14 21 1018.8 1018.8 0.4
15/04:30am 13.4 8.4 8.0 70 2.7 N 24 32 13 17 1019.0 1019.0 0.0
15/04:00am 13.7 9.1 8.1 69 2.8 N 22 28 12 15 1019.0 1019.0 0.0
15/03:30am 14.1 9.8 7.9 66 3.1 N 20 32 11 17 1018.9 1018.9 0.0
15/03:00am 14.6 10.7 7.2 61 3.6 N 17 24 9 13 1018.8 1018.8 0.0
15/02:30am 14.7 10.9 7.5 62 3.6 N 17 24 9 13 1019.0 1019.0 0.0
15/02:00am 14.4 11.1 7.9 65 3.2 N 15 20 8 11 1019.6 1019.6 0.0
15/01:30am 14.5 10.8 8.0 65 3.3 N 17 20 9 11 1019.9 1019.9 0.0
15/01:00am 14.6 11.6 7.6 63 3.5 NNE 13 19 7 10 1020.3 1020.3 0.0
15/12:30am 14.3 11.3 7.6 64 3.3 NNE 13 17 7 9 1020.6 1020.6 0.0
15/12:00am 15.4 12.5 6.4 55 4.4 NNE 11 15 6 8 1020.9 1020.9 0.0
 
Date/Time
EST
Temp
°C
App
Temp
°C
Dew
Point
°C
Rel
Hum
%
Delta-T
°C
Wind Press
QNH
hPa
Press
MSL
hPa
Rain since
9am
mm
Dir  Spd
km/h
Gust
km/h
Spd
kts
Gust
kts
14/11:30pm 15.1 12.2 6.7 57 4.1 NNE 11 15 6 8 1020.9 1020.9 0.0
14/11:00pm 15.7 14.3 5.6 51 4.8 N 2 7 1 4 1021.2 1021.3 0.0
14/10:30pm 15.5 12.2 6.2 54 4.5 N 13 17 7 9 1020.8 1020.8 0.0
14/10:00pm 15.4 11.7 6.4 55 4.4 N 15 20 8 11 1021.1 1021.2 0.0
14/09:30pm 15.6 11.2 6.6 55 4.4 N 19 26 10 14 1021.0 1021.1 0.0
14/09:00pm 15.6 11.7 6.9 56 4.3 N 17 22 9 12 1021.6 1021.7 0.0
14/08:30pm 15.5 12.3 7.0 57 4.2 NNW 13 17 7 9 1021.9 1022.0 0.0
14/08:00pm 14.4 11.7 7.5 63 3.4 N 11 13 6 7 1021.5 1021.6 0.0
14/07:30pm 15.8 11.9 7.1 56 4.3 NNW 17 24 9 13 1021.6 1021.7 0.0
14/07:00pm 16.7 12.8 7.1 53 4.8 NNW 17 24 9 13 1021.6 1021.7 0.0
14/06:30pm 17.3 14.1 8.4 56 4.6 N 15 20 8 11 1021.6 1021.7 0.0
14/06:00pm 18.5 15.1 9.0 54 5.0 N 17 24 9 13 1021.5 1021.6 0.0
14/05:30pm 19.0 15.9 8.9 52 5.3 N 15 19 8 10 1021.7 1021.8 0.0
14/05:00pm 19.6 16.6 9.2 51 5.5 N 15 20 8 11 1021.8 1021.9 0.0
14/04:30pm 19.6 17.8 9.5 52 5.4 N 9 11 5 6 1022.2 1022.3 0.0
14/04:00pm 19.5 17.6 7.6 46 6.1 NNW 7 15 4 8 1022.3 1022.4 0.0
14/03:30pm 19.2 16.4 7.0 45 6.2 NW 11 15 6 8 1022.7 1022.8 0.0
14/03:00pm 18.8 16.9 6.9 46 6.0 NNE 6 15 3 8 1022.8 1022.9 0.0
14/02:30pm 18.4 15.5 4.9 41 6.5 NNW 9 15 5 8 1023.3 1023.4 0.0
14/02:00pm 17.6 14.5 7.1 50 5.2 NNW 13 19 7 10 1023.5 1023.6 0.0
14/01:30pm 17.3 15.3 7.1 51 5.1 N 7 15 4 8 1023.8 1023.9 0.0
14/01:00pm 16.6 13.4 7.0 53 4.8 W 13 20 7 11 1024.3 1024.4 0.0
14/12:30pm 16.0 12.8 5.3 49 5.1 SW 11 19 6 10 1024.8 1024.9 0.0
14/12:00pm 15.2 12.6 6.0 54 4.4 SSW 9 19 5 10 1025.3 1025.4 0.0
14/11:30am 14.9 13.2 6.0 55 4.3 SW 4 9 2 5 1025.6 1025.7 0.0
14/11:00am 14.0 11.8 6.1 59 3.8 SSW 7 13 4 7 1025.7 1025.8 0.0
14/10:30am 14.8 13.1 7.6 62 3.6 SE 6 9 3 5 1026.1 1026.2 0.0
14/10:00am 13.6 11.6 6.9 64 3.2 SSW 7 17 4 9 1026.6 1026.7 0.0
14/09:30am 13.2 9.4 7.6 69 2.8 SW 17 20 9 11 1026.9 1027.0 0.0
14/09:00am 12.4 8.7 8.1 75 2.1 WSW 17 22 9 12 1027.1 1027.2 0.0

Latest Capital City Observations: Canberra | Sydney | Melbourne | Brisbane | Adelaide | Perth | Hobart | Darwin

Other formats

Comma delimited format used in spreadsheet applications
http://www.bom.gov.au/fwo/IDV60901/IDV60901.95866.axf

JavaScript Object Notation format (JSON) in row-major order
http://www.bom.gov.au/fwo/IDV60901/IDV60901.95866.json

Data quality

Most of these data are generated automatically and are frequently updated. Quality checks on data are not normally performed. It is possible for incorrect values to appear. Refer to information at About Latest Weather Observations and please check the disclaimer before using these data.